createdAt,value
2023-02-01T00:00:19.685Z,97266.47
2023-02-01T00:02:49.098Z,97263.19
2023-02-01T00:05:17.526Z,97261.41
2023-02-01T00:07:48.979Z,97258.78
2023-02-01T00:10:18.008Z,97255.25
2023-02-01T00:12:46.818Z,97257.00
2023-02-01T00:15:14.609Z,97263.03
2023-02-01T00:17:42.448Z,97256.25
2023-02-01T00:20:13.228Z,97254.34
2023-02-01T00:22:41.027Z,97253.59
2023-02-01T00:25:10.003Z,97247.41
2023-02-01T00:27:37.925Z,97249.22
2023-02-01T00:30:06.798Z,97249.13
2023-02-01T00:32:34.659Z,97245.78
2023-02-01T00:35:02.528Z,97240.38
2023-02-01T00:37:32.042Z,97231.75
2023-02-01T00:39:59.892Z,97231.75
2023-02-01T00:42:27.723Z,97221.34
2023-02-01T00:44:55.527Z,97223.16
2023-02-01T00:47:23.610Z,97223.06
2023-02-01T00:49:51.479Z,97216.91
2023-02-01T00:52:19.822Z,97214.34
2023-02-01T00:54:49.446Z,97212.84
2023-02-01T00:57:17.612Z,97219.56
2023-02-01T00:59:45.744Z,97214.31
2023-02-01T01:02:15.342Z,97211.66
2023-02-01T01:04:43.623Z,97223.16
2023-02-01T01:07:11.779Z,97216.97
2023-02-01T01:09:40.074Z,97225.66
2023-02-01T01:12:10.665Z,97216.13
2023-02-01T01:14:38.865Z,97213.41
2023-02-01T01:17:07.175Z,97197.88
2023-02-01T01:19:35.787Z,97208.28
2023-02-01T01:22:04.052Z,97191.84
2023-02-01T01:24:31.849Z,97196.09
2023-02-01T01:26:59.685Z,97194.41
2023-02-01T01:29:29.004Z,97203.16
2023-02-01T01:31:57.155Z,97201.25
2023-02-01T01:34:25.114Z,97200.25
2023-02-01T01:36:53.015Z,97202.03
2023-02-01T01:39:20.906Z,97203.75
2023-02-01T01:41:49.127Z,97205.50
2023-02-01T01:45:00.651Z,97198.63
2023-02-01T01:47:36.910Z,97197.69
2023-02-01T01:50:08.171Z,97204.53
2023-02-01T01:52:37.058Z,97201.16
2023-02-01T01:55:06.239Z,97180.28
2023-02-01T01:57:37.536Z,97189.94
2023-02-01T02:00:10.802Z,97189.69
2023-02-01T02:02:49.027Z,97191.50
2023-02-01T02:05:19.944Z,97193.31
2023-02-01T02:07:51.332Z,97191.50
2023-02-01T02:10:20.378Z,97190.53
2023-02-01T02:12:50.745Z,97191.47
2023-02-01T02:15:20.141Z,97192.31
2023-02-01T02:17:58.092Z,97189.47
2023-02-01T02:20:46.831Z,97192.13
2023-02-01T02:23:32.728Z,97194.78
2023-02-01T02:26:41.205Z,97186.88
2023-02-01T02:29:44.995Z,97187.66
2023-02-01T02:32:42.000Z,97185.09
2023-02-01T02:35:19.181Z,97178.91
2023-02-01T02:37:56.316Z,97171.94
2023-02-01T02:40:33.296Z,97178.78
2023-02-01T02:43:25.015Z,97174.44
2023-02-01T02:46:14.905Z,97177.75
2023-02-01T02:48:48.357Z,97170.06
2023-02-01T02:51:43.277Z,97178.69
2023-02-01T02:54:33.455Z,97175.03
2023-02-01T02:57:21.521Z,97182.00
2023-02-01T03:00:08.306Z,97175.16
2023-02-01T03:02:54.882Z,97169.81
2023-02-01T03:05:22.907Z,97162.78
2023-02-01T03:07:59.255Z,97147.25
2023-02-01T03:10:37.614Z,97137.75
2023-02-01T03:13:10.111Z,97137.53
2023-02-01T03:15:44.426Z,97142.69
2023-02-01T03:18:17.385Z,97157.56
2023-02-01T03:20:48.790Z,97160.97
2023-02-01T03:23:22.829Z,97153.94
2023-02-01T03:25:54.253Z,97151.38
2023-02-01T03:28:27.830Z,97159.19
2023-02-01T03:30:56.517Z,97142.66
2023-02-01T03:33:28.493Z,97139.09
2023-02-01T03:36:07.593Z,97129.66
2023-02-01T03:38:42.491Z,97126.16
2023-02-01T03:41:20.068Z,97129.50
2023-02-01T03:43:57.474Z,97127.78
2023-02-01T03:46:33.667Z,97116.41
2023-02-01T03:49:05.675Z,97119.81
2023-02-01T03:51:35.622Z,97109.44
2023-02-01T03:54:08.438Z,97104.22
2023-02-01T03:56:40.248Z,97099.13
2023-02-01T03:59:08.139Z,97096.38
2023-02-01T04:01:37.345Z,97094.75
2023-02-01T04:04:05.804Z,97101.59
2023-02-01T04:06:34.419Z,97095.53
2023-02-01T04:09:06.108Z,97080.81
2023-02-01T04:11:33.942Z,97099.00
2023-02-01T04:14:05.325Z,97101.59
2023-02-01T04:16:33.480Z,97124.91
2023-02-01T04:19:01.905Z,97119.63
2023-02-01T04:21:30.435Z,97122.25
2023-02-01T04:23:58.622Z,97124.84
2023-02-01T04:26:27.861Z,97128.19
2023-02-01T04:28:55.733Z,97129.06
2023-02-01T04:31:26.485Z,97116.88
2023-02-01T04:33:55.590Z,97120.28
2023-02-01T04:36:24.223Z,97125.38
2023-02-01T04:38:52.761Z,97126.31
2023-02-01T04:41:21.106Z,97126.16
2023-02-01T04:43:51.919Z,97120.91
2023-02-01T04:46:20.330Z,97127.88
2023-02-01T04:48:48.208Z,97129.72
2023-02-01T04:51:16.945Z,97134.94
2023-02-01T04:53:44.848Z,97140.00
2023-02-01T04:56:12.931Z,97129.53
2023-02-01T04:58:40.807Z,97125.19
2023-02-01T05:01:10.040Z,97101.69
2023-02-01T05:03:37.846Z,97088.78
2023-02-01T05:06:06.004Z,97090.50
2023-02-01T05:08:34.632Z,97086.16
2023-02-01T05:11:04.351Z,97091.25
2023-02-01T05:13:50.073Z,97108.63
2023-02-01T05:16:19.332Z,97115.53
2023-02-01T05:18:47.532Z,97116.28
2023-02-01T05:21:15.392Z,97122.41
2023-02-01T05:23:57.151Z,97128.34
2023-02-01T05:26:26.097Z,97136.13
2023-02-01T05:28:54.040Z,97136.00
2023-02-01T05:31:24.169Z,97137.03
2023-02-01T05:33:52.036Z,97136.91
2023-02-01T05:36:19.967Z,97137.03
2023-02-01T05:38:47.734Z,97138.84
2023-02-01T05:41:15.572Z,97142.38
2023-02-01T05:43:43.465Z,97139.84
2023-02-01T05:46:13.731Z,97148.44
2023-02-01T05:48:43.520Z,97147.72
2023-02-01T05:51:11.678Z,97153.84
2023-02-01T05:53:39.603Z,97157.41
2023-02-01T05:56:08.391Z,97158.28
2023-02-01T05:58:36.423Z,97161.63
2023-02-01T06:01:04.751Z,97166.06
2023-02-01T06:03:32.721Z,97160.25
2023-02-01T06:06:02.505Z,97167.94
2023-02-01T06:08:30.638Z,97155.81
2023-02-01T06:11:01.947Z,97150.72
2023-02-01T06:13:30.405Z,97154.09
2023-02-01T06:15:59.059Z,97154.03
2023-02-01T06:18:27.387Z,97148.88
2023-02-01T06:20:56.292Z,97139.34
2023-02-01T06:23:25.737Z,97123.69
2023-02-01T06:25:54.249Z,97110.31
2023-02-01T06:28:22.641Z,97121.59
2023-02-01T06:30:50.532Z,97110.50
2023-02-01T06:33:18.471Z,97117.38
2023-02-01T06:35:46.548Z,97123.47
2023-02-01T06:38:14.852Z,97128.78
2023-02-01T06:40:44.679Z,97125.16
2023-02-01T06:43:12.627Z,97131.28
2023-02-01T06:45:40.587Z,97133.63
2023-02-01T06:48:08.629Z,97134.47
2023-02-01T06:50:36.583Z,97140.44
2023-02-01T06:53:04.409Z,97131.63
2023-02-01T06:55:32.268Z,97147.09
2023-02-01T06:58:02.248Z,97143.50
2023-02-01T07:00:30.301Z,97145.16
2023-02-01T07:03:00.100Z,97133.81
2023-02-01T07:05:27.936Z,97138.06
2023-02-01T07:07:55.707Z,97140.72
2023-02-01T07:10:23.796Z,97142.22
2023-02-01T07:12:51.805Z,97148.31
2023-02-01T07:15:21.093Z,97153.41
2023-02-01T07:17:50.039Z,97154.19
2023-02-01T07:20:18.503Z,97165.41
2023-02-01T07:22:46.338Z,97172.28
2023-02-01T07:25:14.481Z,97174.81
2023-02-01T07:27:42.439Z,97175.78
2023-02-01T07:30:11.741Z,97177.41
2023-02-01T07:32:40.982Z,97186.03
2023-02-01T07:35:09.422Z,97187.63
2023-02-01T07:37:37.995Z,97179.78
2023-02-01T07:40:07.176Z,97180.56
2023-02-01T07:42:36.051Z,97195.28
2023-02-01T07:45:20.021Z,97198.69
2023-02-01T07:47:50.720Z,97190.78
2023-02-01T07:50:18.754Z,97188.09
2023-02-01T07:52:46.559Z,97190.66
2023-02-01T07:55:14.374Z,97186.22
2023-02-01T07:57:42.628Z,97180.91
2023-02-01T08:00:29.522Z,97181.78
2023-02-01T08:03:00.144Z,97180.00
2023-02-01T08:05:28.394Z,97179.03
2023-02-01T08:07:56.576Z,97174.59
2023-02-01T08:10:24.609Z,97171.81
2023-02-01T08:12:52.949Z,97177.84
2023-02-01T08:15:20.796Z,97173.41
2023-02-01T08:17:49.628Z,97178.63
2023-02-01T08:20:19.922Z,97181.25
2023-02-01T08:22:47.753Z,97186.47
2023-02-01T08:25:15.735Z,97201.16
2023-02-01T08:27:43.652Z,97194.22
2023-02-01T08:30:12.638Z,97198.50
2023-02-01T08:32:40.535Z,97192.28
2023-02-01T08:35:09.393Z,97196.53
2023-02-01T08:37:38.674Z,97179.78
2023-02-01T08:40:07.808Z,97189.09
2023-02-01T08:42:53.656Z,97192.47
2023-02-01T08:45:23.179Z,97191.56
2023-02-01T08:47:51.095Z,97190.63
2023-02-01T08:50:19.814Z,97193.19
2023-02-01T08:52:49.474Z,97192.34
2023-02-01T08:55:17.780Z,97201.72
2023-02-01T08:57:46.214Z,97199.19
2023-02-01T09:00:16.875Z,97200.00
2023-02-01T09:02:44.834Z,97203.50
2023-02-01T09:05:14.953Z,97197.44
2023-02-01T09:07:42.812Z,97199.13
2023-02-01T09:10:13.747Z,97196.50
2023-02-01T09:12:42.429Z,97210.50
2023-02-01T09:15:10.859Z,97224.41
2023-02-01T09:17:38.873Z,97234.88
2023-02-01T09:20:07.395Z,97237.59
2023-02-01T09:22:35.198Z,97233.91
2023-02-01T09:25:03.178Z,97229.59
2023-02-01T09:27:32.399Z,97221.75
2023-02-01T09:30:00.335Z,97225.16
2023-02-01T09:32:28.308Z,97216.53
2023-02-01T09:34:56.187Z,97216.38
2023-02-01T09:37:24.103Z,97213.72
2023-02-01T09:39:51.884Z,97219.53
2023-02-01T09:42:32.984Z,97214.94
2023-02-01T09:45:15.025Z,97228.72
2023-02-01T09:47:49.895Z,97238.19
2023-02-01T09:50:22.420Z,97233.75
2023-02-01T09:52:56.924Z,97230.13
2023-02-01T09:55:35.873Z,97230.88
2023-02-01T09:58:07.861Z,97236.03
2023-02-01T10:00:39.880Z,97237.53
2023-02-01T10:03:12.990Z,97235.63
2023-02-01T10:06:08.041Z,97246.75
2023-02-01T10:08:45.131Z,97244.03
2023-02-01T10:11:27.116Z,97250.06
2023-02-01T10:14:09.256Z,97261.47
2023-02-01T10:16:46.985Z,97241.38
2023-02-01T10:19:29.277Z,97248.22
2023-02-01T10:22:02.863Z,97257.84
2023-02-01T10:24:42.973Z,97263.03
2023-02-01T10:27:22.385Z,97267.34
2023-02-01T10:29:54.400Z,97275.91
2023-02-01T10:32:27.032Z,97263.72
2023-02-01T10:34:59.714Z,97273.34
2023-02-01T10:37:30.867Z,97278.53
2023-02-01T10:40:01.768Z,97278.44
2023-02-01T10:42:31.449Z,97269.75
2023-02-01T10:45:04.063Z,97268.69
2023-02-01T10:47:33.237Z,97268.75
2023-02-01T10:50:16.559Z,97273.94
2023-02-01T10:52:50.608Z,97266.88
2023-02-01T10:55:50.386Z,97260.84
2023-02-01T10:58:20.536Z,97261.69
2023-02-01T11:00:54.595Z,97250.28
2023-02-01T11:03:40.860Z,97249.50
2023-02-01T11:06:18.801Z,97254.66
2023-02-01T11:08:51.889Z,97241.63
2023-02-01T11:11:20.462Z,97244.94
2023-02-01T11:13:55.428Z,97248.31
2023-02-01T11:16:23.775Z,97248.25
2023-02-01T11:18:56.847Z,97244.78
2023-02-01T11:21:25.181Z,97236.88
2023-02-01T11:23:53.077Z,97244.50
2023-02-01T11:26:25.390Z,97244.50
2023-02-01T11:28:58.812Z,97241.94
2023-02-01T11:31:28.224Z,97243.72
2023-02-01T11:34:01.494Z,97228.91
2023-02-01T11:36:32.392Z,97235.00
2023-02-01T11:39:19.942Z,97223.69
2023-02-01T11:42:00.169Z,97231.47
2023-02-01T11:44:33.978Z,97215.75
2023-02-01T11:47:26.848Z,97223.56
2023-02-01T11:49:58.252Z,97205.28
2023-02-01T11:52:51.545Z,97195.59
2023-02-01T11:55:41.953Z,97189.44
2023-02-01T11:58:24.733Z,97190.28
2023-02-01T12:01:06.996Z,97175.44
2023-02-01T12:03:54.273Z,97178.06
2023-02-01T12:06:33.091Z,97183.81
2023-02-01T12:09:23.946Z,97178.91
2023-02-01T12:12:02.353Z,97177.13
2023-02-01T12:14:44.199Z,97180.78
2023-02-01T12:17:35.621Z,97179.09
2023-02-01T12:20:27.353Z,97172.16
2023-02-01T12:23:17.528Z,97171.47
2023-02-01T12:26:02.487Z,97179.31
2023-02-01T12:28:57.607Z,97168.69
2023-02-01T12:32:01.247Z,97180.94
2023-02-01T12:34:40.925Z,97175.78
2023-02-01T12:37:25.376Z,97175.94
2023-02-01T12:40:04.682Z,97168.91
2023-02-01T12:42:38.061Z,97173.16
2023-02-01T12:45:16.695Z,97168.84
2023-02-01T12:47:53.134Z,97170.91
2023-02-01T12:50:26.770Z,97160.28
2023-02-01T12:52:58.456Z,97161.06
2023-02-01T12:55:36.915Z,97165.41
2023-02-01T12:58:13.014Z,97157.31
2023-02-01T13:00:46.227Z,97157.44
2023-02-01T13:03:26.314Z,97161.06
2023-02-01T13:06:00.723Z,97170.69
2023-02-01T13:08:39.580Z,97165.47
2023-02-01T13:11:16.088Z,97175.94
2023-02-01T13:13:51.503Z,97176.84
2023-02-01T13:16:28.147Z,97172.53
2023-02-01T13:19:13.212Z,97175.09
2023-02-01T13:21:45.091Z,97161.16
2023-02-01T13:24:28.932Z,97145.34
2023-02-01T13:26:58.383Z,97159.38
2023-02-01T13:29:29.199Z,97138.59
2023-02-01T13:32:19.710Z,97144.88
2023-02-01T13:35:28.936Z,97130.06
2023-02-01T13:38:24.110Z,97142.31
2023-02-01T13:41:06.470Z,97138.94
2023-02-01T13:43:36.552Z,97136.41
2023-02-01T13:46:08.746Z,97149.56
2023-02-01T13:48:47.421Z,97149.34
2023-02-01T13:51:16.680Z,97148.50
2023-02-01T13:53:48.727Z,97146.00
2023-02-01T13:56:19.488Z,97147.72
2023-02-01T13:58:50.022Z,97132.91
2023-02-01T14:01:45.074Z,97132.06
2023-02-01T14:04:48.037Z,97126.94
2023-02-01T14:07:21.656Z,97138.03
2023-02-01T14:09:50.048Z,97134.56
2023-02-01T14:12:46.997Z,97122.31
2023-02-01T14:15:29.819Z,97129.34
2023-02-01T14:17:57.972Z,97122.44
2023-02-01T14:20:50.012Z,97123.16
2023-02-01T14:23:22.231Z,97113.53
2023-02-01T14:26:04.473Z,97117.94
2023-02-01T14:28:32.905Z,97141.47
2023-02-01T14:31:02.347Z,97139.81
2023-02-01T14:33:30.650Z,97126.78
2023-02-01T14:36:09.838Z,97143.31
2023-02-01T14:38:39.984Z,97136.47
2023-02-01T14:41:28.116Z,97143.31
2023-02-01T14:44:28.222Z,97143.31
2023-02-01T14:47:31.866Z,97138.09
2023-02-01T14:50:26.936Z,97149.41
2023-02-01T14:53:08.677Z,97159.75
2023-02-01T14:55:42.200Z,97153.78
2023-02-01T14:58:20.049Z,97168.66
2023-02-01T15:00:52.179Z,97159.03
2023-02-01T15:03:36.574Z,97168.66
2023-02-01T15:06:07.004Z,97172.16
2023-02-01T15:08:40.124Z,97159.19
2023-02-01T15:11:14.364Z,97164.41
2023-02-01T15:13:42.544Z,97172.16
2023-02-01T15:16:14.021Z,97162.63
2023-02-01T15:18:43.783Z,97170.34
2023-02-01T15:21:28.430Z,97190.38
2023-02-01T15:24:12.814Z,97191.22
2023-02-01T15:26:41.207Z,97193.84
2023-02-01T15:29:13.434Z,97199.00
2023-02-01T15:31:43.883Z,97188.59
2023-02-01T15:34:13.710Z,97188.53
2023-02-01T15:36:50.582Z,97178.97
2023-02-01T15:39:26.850Z,97166.81
2023-02-01T15:41:57.336Z,97187.66
2023-02-01T15:44:35.869Z,97171.22
2023-02-01T15:47:10.996Z,97180.81
2023-02-01T15:49:43.724Z,97180.13
2023-02-01T15:52:23.184Z,97188.81
2023-02-01T15:54:54.298Z,97193.19
2023-02-01T15:57:31.379Z,97189.81
2023-02-01T16:00:00.856Z,97189.03
2023-02-01T16:02:33.298Z,97190.84
2023-02-01T16:05:03.876Z,97196.03
2023-02-01T16:07:34.744Z,97201.41
2023-02-01T16:10:07.992Z,97183.00
2023-02-01T16:12:47.746Z,97202.38
2023-02-01T16:15:16.467Z,97201.53
2023-02-01T16:17:44.802Z,97200.63
2023-02-01T16:20:14.926Z,97198.00
2023-02-01T16:22:43.004Z,97202.25
2023-02-01T16:25:11.079Z,97217.22
2023-02-01T16:27:38.984Z,97198.13
2023-02-01T16:30:09.917Z,97206.06
2023-02-01T16:32:39.238Z,97207.69
2023-02-01T16:35:14.595Z,97193.00
2023-02-01T16:37:43.779Z,97204.34
2023-02-01T16:40:15.309Z,97202.78
2023-02-01T16:42:43.397Z,97197.50
2023-02-01T16:45:12.056Z,97212.34
2023-02-01T16:47:42.569Z,97220.25
2023-02-01T16:50:23.059Z,97211.50
2023-02-01T16:52:54.272Z,97214.97
2023-02-01T16:55:23.926Z,97228.91
2023-02-01T16:57:52.122Z,97213.19
2023-02-01T17:00:25.103Z,97222.88
2023-02-01T17:02:54.185Z,97238.66
2023-02-01T17:05:23.148Z,97228.25
2023-02-01T17:07:51.535Z,97226.47
2023-02-01T17:10:33.353Z,97233.44
2023-02-01T17:13:02.377Z,97236.16
2023-02-01T17:15:36.827Z,97237.09
2023-02-01T17:18:05.399Z,97231.91
2023-02-01T17:20:34.058Z,97222.25
2023-02-01T17:23:02.123Z,97222.38
2023-02-01T17:25:32.814Z,97227.47
2023-02-01T17:28:01.218Z,97230.13
2023-02-01T17:30:29.305Z,97228.50
2023-02-01T17:32:57.659Z,97234.53
2023-02-01T17:35:28.165Z,97224.06
2023-02-01T17:37:56.637Z,97229.31
2023-02-01T17:40:25.010Z,97227.63
2023-02-01T17:42:57.799Z,97228.50
2023-02-01T17:45:36.340Z,97231.91
2023-02-01T17:48:05.026Z,97224.06
2023-02-01T17:50:35.876Z,97223.28
2023-02-01T17:53:05.968Z,97225.19
2023-02-01T17:55:36.635Z,97218.41
2023-02-01T17:58:05.983Z,97219.38
2023-02-01T18:00:35.730Z,97225.53
2023-02-01T18:03:04.900Z,97221.22
2023-02-01T18:05:40.282Z,97218.44
2023-02-01T18:08:08.688Z,97219.38
2023-02-01T18:10:37.105Z,97226.38
2023-02-01T18:13:06.422Z,97217.69
2023-02-01T18:15:34.300Z,97225.53
2023-02-01T18:18:02.512Z,97228.91
2023-02-01T18:20:30.360Z,97229.69
2023-02-01T18:22:58.505Z,97228.84
2023-02-01T18:25:27.915Z,97231.53
2023-02-01T18:27:57.295Z,97221.06
2023-02-01T18:30:32.072Z,97224.47
2023-02-01T18:33:00.241Z,97244.56
2023-02-01T18:35:30.497Z,97227.88
2023-02-01T18:37:59.426Z,97239.97
2023-02-01T18:40:30.691Z,97241.75
2023-02-01T18:42:58.558Z,97239.13
2023-02-01T18:45:31.783Z,97240.94
2023-02-01T18:48:00.749Z,97244.34
2023-02-01T18:50:31.138Z,97242.59
2023-02-01T18:53:00.355Z,97252.94
2023-02-01T18:55:29.777Z,97249.38
2023-02-01T18:57:57.595Z,97242.47
2023-02-01T19:00:25.609Z,97242.38
2023-02-01T19:02:55.194Z,97240.69
2023-02-01T19:05:23.767Z,97242.47
2023-02-01T19:07:52.129Z,97251.94
2023-02-01T19:10:22.380Z,97249.25
2023-02-01T19:12:50.729Z,97240.53
2023-02-01T19:15:19.153Z,97244.09
2023-02-01T19:17:48.792Z,97244.09
2023-02-01T19:20:20.512Z,97239.75
2023-02-01T19:22:48.596Z,97240.59
2023-02-01T19:25:19.850Z,97231.00
2023-02-01T19:27:48.061Z,97229.19
2023-02-01T19:30:16.874Z,97221.34
2023-02-01T19:32:44.915Z,97219.63
2023-02-01T19:35:15.117Z,97212.69
2023-02-01T19:37:44.596Z,97208.38
2023-02-01T19:40:14.763Z,97204.84
2023-02-01T19:42:42.659Z,97208.25
2023-02-01T19:45:11.711Z,97195.22
2023-02-01T19:47:40.098Z,97203.06
2023-02-01T19:50:09.452Z,97207.53
2023-02-01T19:52:38.042Z,97206.69
2023-02-01T19:55:07.842Z,97206.75
2023-02-01T19:57:36.354Z,97216.31
2023-02-01T20:00:05.630Z,97217.16
2023-02-01T20:02:32.618Z,97215.38
2023-02-01T20:05:00.565Z,97220.59
2023-02-01T20:07:28.332Z,97218.97
2023-02-01T20:09:56.125Z,97216.31
2023-02-01T20:12:25.395Z,97227.63
2023-02-01T20:14:55.493Z,97226.69
2023-02-01T20:17:23.425Z,97228.47
2023-02-01T20:19:51.333Z,97233.63
2023-02-01T20:22:19.659Z,97230.09
2023-02-01T20:24:47.457Z,97238.88
2023-02-01T20:27:17.443Z,97242.25
2023-02-01T20:29:46.650Z,97247.56
2023-02-01T20:32:14.449Z,97249.25
2023-02-01T20:34:42.689Z,97257.03
2023-02-01T20:37:10.499Z,97262.22
2023-02-01T20:39:38.319Z,97257.81
2023-02-01T20:42:06.347Z,97265.66
2023-02-01T20:44:34.235Z,97263.94
2023-02-01T20:47:05.491Z,97269.97
2023-02-01T20:49:34.562Z,97267.34
2023-02-01T20:52:02.445Z,97260.34
2023-02-01T20:54:30.597Z,97267.28
2023-02-01T20:56:58.395Z,97280.31
2023-02-01T20:59:26.204Z,97282.94
2023-02-01T21:01:54.061Z,97282.94
2023-02-01T21:04:27.201Z,97282.06
2023-02-01T21:06:55.168Z,97280.22
2023-02-01T21:09:23.554Z,97275.94
2023-02-01T21:11:51.639Z,97278.59
2023-02-01T21:14:20.403Z,97268.94
2023-02-01T21:16:48.919Z,97265.47
2023-02-01T21:19:19.423Z,97263.69
2023-02-01T21:21:48.644Z,97256.47
2023-02-01T21:24:16.493Z,97253.09
2023-02-01T21:26:44.315Z,97251.25
2023-02-01T21:29:14.092Z,97236.38
2023-02-01T21:31:43.149Z,97246.84
2023-02-01T21:34:11.684Z,97241.63
2023-02-01T21:36:39.618Z,97248.56
2023-02-01T21:39:11.523Z,97238.88
2023-02-01T21:41:57.296Z,97240.56
2023-02-01T21:44:25.291Z,97246.66
2023-02-01T21:46:55.516Z,97242.28
2023-02-01T21:49:25.478Z,97243.03
2023-02-01T21:51:53.751Z,97252.66
2023-02-01T21:54:23.017Z,97237.59
2023-02-01T21:56:50.864Z,97237.75
2023-02-01T21:59:18.764Z,97237.75
2023-02-01T22:01:46.984Z,97237.69
2023-02-01T22:04:14.821Z,97243.91
2023-02-01T22:06:46.217Z,97242.09
2023-02-01T22:09:17.871Z,97257.84
2023-02-01T22:11:48.647Z,97252.66
2023-02-01T22:14:17.244Z,97257.06
2023-02-01T22:16:45.681Z,97257.13
2023-02-01T22:19:14.100Z,97264.13
2023-02-01T22:21:43.253Z,97260.66
2023-02-01T22:24:12.397Z,97262.50
2023-02-01T22:26:41.222Z,97260.81
2023-02-01T22:29:12.981Z,97262.56
2023-02-01T22:31:41.037Z,97262.00
2023-02-01T22:34:11.095Z,97268.09
2023-02-01T22:36:39.096Z,97266.31
2023-02-01T22:39:06.976Z,97262.00
2023-02-01T22:41:34.895Z,97259.44
2023-02-01T22:44:02.741Z,97266.31
2023-02-01T22:46:32.320Z,97261.22
2023-02-01T22:49:01.202Z,97263.06
2023-02-01T22:51:30.532Z,97254.41
2023-02-01T22:53:59.252Z,97250.97
2023-02-01T22:56:30.218Z,97245.59
2023-02-01T22:58:59.964Z,97243.03
2023-02-01T23:01:29.059Z,97250.13
2023-02-01T23:03:59.465Z,97259.59
2023-02-01T23:06:27.594Z,97261.53
2023-02-01T23:08:57.038Z,97267.44
2023-02-01T23:11:25.468Z,97268.44
2023-02-01T23:13:53.276Z,97261.47
2023-02-01T23:16:21.551Z,97258.81
2023-02-01T23:18:49.706Z,97250.03
2023-02-01T23:21:21.264Z,97244.88
2023-02-01T23:23:50.461Z,97250.03
2023-02-01T23:26:19.208Z,97250.31
2023-02-01T23:28:47.243Z,97237.22
2023-02-01T23:31:15.749Z,97234.69
2023-02-01T23:33:49.141Z,97234.53
2023-02-01T23:36:18.758Z,97223.22
2023-02-01T23:38:47.546Z,97217.22
2023-02-01T23:41:17.405Z,97216.41
2023-02-01T23:44:01.733Z,97213.91
2023-02-01T23:46:32.811Z,97214.78
2023-02-01T23:49:01.726Z,97215.91
2023-02-01T23:51:31.452Z,97218.44
2023-02-01T23:53:59.596Z,97215.91
2023-02-01T23:56:31.291Z,97218.44
2023-02-01T23:58:59.270Z,97210.59
